sensor_id;sensor_type;location;lat;lon;timestamp;P1;durP1;ratioP1;P2;durP2;ratioP2
8297;SDS011;4187;42.778;23.242;2023-05-07T00:01:00;9.25;;;7.38;;
8297;SDS011;4187;42.778;23.242;2023-05-07T00:03:32;7.90;;;6.72;;
8297;SDS011;4187;42.778;23.242;2023-05-07T00:06:05;8.18;;;6.30;;
8297;SDS011;4187;42.778;23.242;2023-05-07T00:08:40;8.07;;;6.63;;
8297;SDS011;4187;42.778;23.242;2023-05-07T00:11:10;10.48;;;7.10;;
8297;SDS011;4187;42.778;23.242;2023-05-07T00:13:43;10.57;;;6.63;;
8297;SDS011;4187;42.778;23.242;2023-05-07T00:16:14;8.07;;;6.70;;
8297;SDS011;4187;42.778;23.242;2023-05-07T00:18:46;7.90;;;7.10;;
8297;SDS011;4187;42.778;23.242;2023-05-07T00:21:21;12.90;;;10.30;;
8297;SDS011;4187;42.778;23.242;2023-05-07T00:23:55;10.35;;;8.45;;
8297;SDS011;4187;42.778;23.242;2023-05-07T00:26:28;11.77;;;8.10;;
8297;SDS011;4187;42.778;23.242;2023-05-07T00:29:01;8.67;;;7.57;;
8297;SDS011;4187;42.778;23.242;2023-05-07T00:31:35;11.65;;;9.40;;
8297;SDS011;4187;42.778;23.242;2023-05-07T00:34:09;8.47;;;7.67;;
8297;SDS011;4187;42.778;23.242;2023-05-07T00:36:42;8.83;;;7.00;;
8297;SDS011;4187;42.778;23.242;2023-05-07T00:39:13;10.27;;;7.30;;
8297;SDS011;4187;42.778;23.242;2023-05-07T00:41:47;7.90;;;6.70;;
8297;SDS011;4187;42.778;23.242;2023-05-07T00:44:26;8.03;;;6.90;;
8297;SDS011;4187;42.778;23.242;2023-05-07T00:46:59;7.03;;;6.33;;
8297;SDS011;4187;42.778;23.242;2023-05-07T00:49:37;13.07;;;6.90;;
8297;SDS011;4187;42.778;23.242;2023-05-07T00:52:09;7.77;;;6.80;;
8297;SDS011;4187;42.778;23.242;2023-05-07T00:54:42;9.57;;;7.20;;
8297;SDS011;4187;42.778;23.242;2023-05-07T00:57:18;8.13;;;7.33;;
8297;SDS011;4187;42.778;23.242;2023-05-07T00:59:57;11.83;;;7.83;;
8297;SDS011;4187;42.778;23.242;2023-05-07T01:02:26;8.63;;;7.73;;
8297;SDS011;4187;42.778;23.242;2023-05-07T01:04:59;8.23;;;7.37;;
8297;SDS011;4187;42.778;23.242;2023-05-07T01:07:30;8.97;;;7.70;;
8297;SDS011;4187;42.778;23.242;2023-05-07T01:10:03;7.80;;;7.07;;
8297;SDS011;4187;42.778;23.242;2023-05-07T01:12:33;8.63;;;6.70;;
8297;SDS011;4187;42.778;23.242;2023-05-07T01:15:05;8.37;;;6.80;;
8297;SDS011;4187;42.778;23.242;2023-05-07T01:17:42;10.43;;;6.90;;
8297;SDS011;4187;42.778;23.242;2023-05-07T01:20:15;7.85;;;7.00;;
8297;SDS011;4187;42.778;23.242;2023-05-07T01:22:51;14.57;;;8.05;;
8297;SDS011;4187;42.778;23.242;2023-05-07T01:25:26;8.73;;;7.93;;
8297;SDS011;4187;42.778;23.242;2023-05-07T01:27:57;10.90;;;8.27;;
8297;SDS011;4187;42.778;23.242;2023-05-07T01:30:28;9.47;;;7.47;;
8297;SDS011;4187;42.778;23.242;2023-05-07T01:33:06;11.80;;;9.03;;
8297;SDS011;4187;42.778;23.242;2023-05-07T01:35:47;14.33;;;8.97;;
8297;SDS011;4187;42.778;23.242;2023-05-07T01:38:29;11.27;;;7.80;;
8297;SDS011;4187;42.778;23.242;2023-05-07T01:41:06;11.98;;;8.75;;
8297;SDS011;4187;42.778;23.242;2023-05-07T01:43:44;10.68;;;8.23;;
8297;SDS011;4187;42.778;23.242;2023-05-07T01:46:23;9.80;;;8.37;;
8297;SDS011;4187;42.778;23.242;2023-05-07T01:48:59;9.02;;;7.72;;
8297;SDS011;4187;42.778;23.242;2023-05-07T01:51:33;8.48;;;7.63;;
8297;SDS011;4187;42.778;23.242;2023-05-07T01:54:11;9.60;;;8.05;;
8297;SDS011;4187;42.778;23.242;2023-05-07T01:56:44;10.23;;;8.98;;
8297;SDS011;4187;42.778;23.242;2023-05-07T01:59:15;10.00;;;8.18;;
8297;SDS011;4187;42.778;23.242;2023-05-07T02:01:49;8.23;;;7.23;;
8297;SDS011;4187;42.778;23.242;2023-05-07T02:04:22;10.93;;;6.85;;
8297;SDS011;4187;42.778;23.242;2023-05-07T02:06:56;10.37;;;7.00;;
8297;SDS011;4187;42.778;23.242;2023-05-07T02:09:34;9.80;;;6.80;;
8297;SDS011;4187;42.778;23.242;2023-05-07T02:12:06;8.67;;;6.80;;
8297;SDS011;4187;42.778;23.242;2023-05-07T02:14:43;7.27;;;6.50;;
8297;SDS011;4187;42.778;23.242;2023-05-07T02:17:17;6.82;;;6.22;;
8297;SDS011;4187;42.778;23.242;2023-05-07T02:19:54;7.60;;;6.70;;
8297;SDS011;4187;42.778;23.242;2023-05-07T02:22:28;7.87;;;6.70;;
8297;SDS011;4187;42.778;23.242;2023-05-07T02:25:09;7.37;;;6.40;;
8297;SDS011;4187;42.778;23.242;2023-05-07T02:27:42;6.83;;;6.03;;
8297;SDS011;4187;42.778;23.242;2023-05-07T02:30:22;7.50;;;5.80;;
8297;SDS011;4187;42.778;23.242;2023-05-07T02:33:05;9.53;;;6.50;;
8297;SDS011;4187;42.778;23.242;2023-05-07T02:35:45;6.20;;;5.60;;
8297;SDS011;4187;42.778;23.242;2023-05-07T02:38:18;7.10;;;5.90;;
8297;SDS011;4187;42.778;23.242;2023-05-07T02:40:58;10.07;;;6.20;;
8297;SDS011;4187;42.778;23.242;2023-05-07T02:43:32;6.93;;;5.27;;
8297;SDS011;4187;42.778;23.242;2023-05-07T02:46:10;8.20;;;5.97;;
8297;SDS011;4187;42.778;23.242;2023-05-07T02:48:48;6.23;;;5.10;;
8297;SDS011;4187;42.778;23.242;2023-05-07T02:51:22;7.17;;;6.47;;
8297;SDS011;4187;42.778;23.242;2023-05-07T02:54:04;6.80;;;6.10;;
8297;SDS011;4187;42.778;23.242;2023-05-07T02:56:55;7.17;;;6.00;;
8297;SDS011;4187;42.778;23.242;2023-05-07T02:59:36;7.53;;;6.37;;
8297;SDS011;4187;42.778;23.242;2023-05-07T03:02:07;9.63;;;6.17;;
8297;SDS011;4187;42.778;23.242;2023-05-07T03:04:56;7.10;;;6.23;;
8297;SDS011;4187;42.778;23.242;2023-05-07T03:07:41;7.10;;;6.40;;
8297;SDS011;4187;42.778;23.242;2023-05-07T03:10:15;7.97;;;6.20;;
8297;SDS011;4187;42.778;23.242;2023-05-07T03:13:01;6.23;;;5.63;;
8297;SDS011;4187;42.778;23.242;2023-05-07T03:15:38;6.97;;;6.27;;
8297;SDS011;4187;42.778;23.242;2023-05-07T03:21:17;7.07;;;6.37;;
8297;SDS011;4187;42.778;23.242;2023-05-07T03:24:02;7.77;;;6.13;;
8297;SDS011;4187;42.778;23.242;2023-05-07T03:26:39;8.60;;;5.97;;
8297;SDS011;4187;42.778;23.242;2023-05-07T03:32:17;6.57;;;5.50;;
8297;SDS011;4187;42.778;23.242;2023-05-07T03:34:47;7.23;;;5.53;;
8297;SDS011;4187;42.778;23.242;2023-05-07T03:37:18;10.33;;;5.97;;
8297;SDS011;4187;42.778;23.242;2023-05-07T03:39:53;6.87;;;5.80;;
8297;SDS011;4187;42.778;23.242;2023-05-07T03:42:34;9.10;;;5.87;;
8297;SDS011;4187;42.778;23.242;2023-05-07T03:45:05;8.93;;;6.10;;
8297;SDS011;4187;42.778;23.242;2023-05-07T03:47:40;18.73;;;13.03;;
8297;SDS011;4187;42.778;23.242;2023-05-07T03:50:11;12.50;;;10.67;;
8297;SDS011;4187;42.778;23.242;2023-05-07T03:52:48;10.33;;;9.00;;
8297;SDS011;4187;42.778;23.242;2023-05-07T03:55:21;9.83;;;7.83;;
8297;SDS011;4187;42.778;23.242;2023-05-07T03:57:53;13.27;;;10.43;;
8297;SDS011;4187;42.778;23.242;2023-05-07T04:00:21;8.50;;;7.67;;
8297;SDS011;4187;42.778;23.242;2023-05-07T04:02:51;7.23;;;6.07;;
8297;SDS011;4187;42.778;23.242;2023-05-07T04:05:19;8.87;;;5.70;;
8297;SDS011;4187;42.778;23.242;2023-05-07T04:07:48;7.77;;;5.87;;
8297;SDS011;4187;42.778;23.242;2023-05-07T04:10:15;6.30;;;5.70;;
8297;SDS011;4187;42.778;23.242;2023-05-07T04:12:44;6.83;;;6.13;;
8297;SDS011;4187;42.778;23.242;2023-05-07T04:15:14;7.43;;;6.70;;
8297;SDS011;4187;42.778;23.242;2023-05-07T04:17:44;6.50;;;5.80;;
8297;SDS011;4187;42.778;23.242;2023-05-07T04:20:17;7.33;;;5.90;;
8297;SDS011;4187;42.778;23.242;2023-05-07T04:22:50;9.53;;;6.90;;
8297;SDS011;4187;42.778;23.242;2023-05-07T04:25:21;16.17;;;7.40;;
8297;SDS011;4187;42.778;23.242;2023-05-07T04:27:54;8.70;;;7.07;;
8297;SDS011;4187;42.778;23.242;2023-05-07T04:30:24;8.43;;;6.93;;
8297;SDS011;4187;42.778;23.242;2023-05-07T04:33:01;9.63;;;6.83;;
8297;SDS011;4187;42.778;23.242;2023-05-07T04:35:43;6.73;;;6.13;;
8297;SDS011;4187;42.778;23.242;2023-05-07T04:38:23;7.20;;;6.23;;
8297;SDS011;4187;42.778;23.242;2023-05-07T04:41:02;10.43;;;6.35;;
8297;SDS011;4187;42.778;23.242;2023-05-07T04:43:38;7.97;;;6.70;;
8297;SDS011;4187;42.778;23.242;2023-05-07T04:46:09;7.85;;;6.75;;
8297;SDS011;4187;42.778;23.242;2023-05-07T04:48:42;7.97;;;5.70;;
8297;SDS011;4187;42.778;23.242;2023-05-07T04:51:14;10.55;;;6.32;;
8297;SDS011;4187;42.778;23.242;2023-05-07T04:53:45;6.72;;;5.10;;
8297;SDS011;4187;42.778;23.242;2023-05-07T04:56:14;6.75;;;5.57;;
8297;SDS011;4187;42.778;23.242;2023-05-07T04:58:47;9.57;;;6.10;;
8297;SDS011;4187;42.778;23.242;2023-05-07T05:01:20;7.80;;;6.28;;
8297;SDS011;4187;42.778;23.242;2023-05-07T05:03:52;9.32;;;6.70;;
8297;SDS011;4187;42.778;23.242;2023-05-07T05:06:25;10.73;;;6.72;;
8297;SDS011;4187;42.778;23.242;2023-05-07T05:08:56;9.20;;;6.85;;
8297;SDS011;4187;42.778;23.242;2023-05-07T05:11:25;10.07;;;6.90;;
8297;SDS011;4187;42.778;23.242;2023-05-07T05:13:55;8.18;;;6.93;;
8297;SDS011;4187;42.778;23.242;2023-05-07T05:16:22;13.57;;;9.05;;
8297;SDS011;4187;42.778;23.242;2023-05-07T05:18:52;10.30;;;9.20;;
8297;SDS011;4187;42.778;23.242;2023-05-07T05:21:24;11.60;;;8.00;;
8297;SDS011;4187;42.778;23.242;2023-05-07T05:23:55;8.93;;;8.02;;
8297;SDS011;4187;42.778;23.242;2023-05-07T05:26:26;9.55;;;8.60;;
8297;SDS011;4187;42.778;23.242;2023-05-07T05:28:59;13.05;;;11.43;;
8297;SDS011;4187;42.778;23.242;2023-05-07T05:31:32;10.90;;;9.73;;
8297;SDS011;4187;42.778;23.242;2023-05-07T05:34:03;10.18;;;9.18;;
8297;SDS011;4187;42.778;23.242;2023-05-07T05:36:37;10.52;;;9.45;;
8297;SDS011;4187;42.778;23.242;2023-05-07T05:39:10;9.45;;;7.97;;
8297;SDS011;4187;42.778;23.242;2023-05-07T05:41:45;19.38;;;8.10;;
8297;SDS011;4187;42.778;23.242;2023-05-07T05:44:18;11.38;;;9.63;;
8297;SDS011;4187;42.778;23.242;2023-05-07T05:46:49;11.32;;;9.02;;
8297;SDS011;4187;42.778;23.242;2023-05-07T05:49:22;10.65;;;9.50;;
8297;SDS011;4187;42.778;23.242;2023-05-07T05:51:57;10.60;;;9.05;;
8297;SDS011;4187;42.778;23.242;2023-05-07T05:54:29;10.48;;;9.45;;
8297;SDS011;4187;42.778;23.242;2023-05-07T05:57:03;10.00;;;9.10;;
8297;SDS011;4187;42.778;23.242;2023-05-07T05:59:40;12.10;;;9.82;;
8297;SDS011;4187;42.778;23.242;2023-05-07T06:02:13;11.63;;;9.77;;
8297;SDS011;4187;42.778;23.242;2023-05-07T06:04:44;10.73;;;9.07;;
8297;SDS011;4187;42.778;23.242;2023-05-07T06:07:20;10.52;;;9.43;;
8297;SDS011;4187;42.778;23.242;2023-05-07T06:09:53;12.45;;;9.73;;
8297;SDS011;4187;42.778;23.242;2023-05-07T06:12:26;11.50;;;9.20;;
8297;SDS011;4187;42.778;23.242;2023-05-07T06:14:57;11.55;;;8.75;;
8297;SDS011;4187;42.778;23.242;2023-05-07T06:17:35;11.63;;;9.02;;
8297;SDS011;4187;42.778;23.242;2023-05-07T06:20:07;10.15;;;8.77;;
8297;SDS011;4187;42.778;23.242;2023-05-07T06:22:40;9.85;;;8.85;;
8297;SDS011;4187;42.778;23.242;2023-05-07T06:25:10;12.38;;;9.43;;
8297;SDS011;4187;42.778;23.242;2023-05-07T06:27:39;10.55;;;8.80;;
8297;SDS011;4187;42.778;23.242;2023-05-07T06:30:10;9.98;;;8.98;;
8297;SDS011;4187;42.778;23.242;2023-05-07T06:32:42;10.68;;;8.82;;
8297;SDS011;4187;42.778;23.242;2023-05-07T06:35:17;9.95;;;8.95;;
8297;SDS011;4187;42.778;23.242;2023-05-07T06:38:00;10.13;;;9.18;;
8297;SDS011;4187;42.778;23.242;2023-05-07T06:40:33;10.05;;;8.82;;
8297;SDS011;4187;42.778;23.242;2023-05-07T06:43:10;12.00;;;8.90;;
8297;SDS011;4187;42.778;23.242;2023-05-07T06:45:42;10.18;;;9.27;;
8297;SDS011;4187;42.778;23.242;2023-05-07T06:48:15;10.45;;;9.32;;
8297;SDS011;4187;42.778;23.242;2023-05-07T06:50:47;10.18;;;9.18;;
8297;SDS011;4187;42.778;23.242;2023-05-07T06:53:22;9.88;;;8.90;;
8297;SDS011;4187;42.778;23.242;2023-05-07T06:55:52;10.60;;;9.40;;
8297;SDS011;4187;42.778;23.242;2023-05-07T06:58:23;9.85;;;8.85;;
8297;SDS011;4187;42.778;23.242;2023-05-07T07:00:54;12.35;;;8.82;;
8297;SDS011;4187;42.778;23.242;2023-05-07T07:03:24;11.60;;;8.82;;
8297;SDS011;4187;42.778;23.242;2023-05-07T07:05:53;14.13;;;8.60;;
8297;SDS011;4187;42.778;23.242;2023-05-07T07:08:25;12.35;;;8.95;;
8297;SDS011;4187;42.778;23.242;2023-05-07T07:10:55;17.65;;;9.65;;
8297;SDS011;4187;42.778;23.242;2023-05-07T07:13:23;9.27;;;8.32;;
8297;SDS011;4187;42.778;23.242;2023-05-07T07:15:53;12.55;;;9.10;;
8297;SDS011;4187;42.778;23.242;2023-05-07T07:18:20;9.35;;;8.45;;
8297;SDS011;4187;42.778;23.242;2023-05-07T07:20:48;9.23;;;8.15;;
8297;SDS011;4187;42.778;23.242;2023-05-07T07:23:17;7.97;;;7.10;;
8297;SDS011;4187;42.778;23.242;2023-05-07T07:25:48;9.73;;;8.73;;
8297;SDS011;4187;42.778;23.242;2023-05-07T07:28:17;8.07;;;7.38;;
8297;SDS011;4187;42.778;23.242;2023-05-07T07:30:48;8.93;;;7.32;;
8297;SDS011;4187;42.778;23.242;2023-05-07T07:33:16;8.20;;;7.50;;
8297;SDS011;4187;42.778;23.242;2023-05-07T07:35:45;7.60;;;6.90;;
8297;SDS011;4187;42.778;23.242;2023-05-07T07:38:15;8.13;;;7.20;;
8297;SDS011;4187;42.778;23.242;2023-05-07T07:40:44;8.02;;;7.25;;
8297;SDS011;4187;42.778;23.242;2023-05-07T07:43:16;10.00;;;7.57;;
8297;SDS011;4187;42.778;23.242;2023-05-07T07:45:44;8.52;;;7.38;;
8297;SDS011;4187;42.778;23.242;2023-05-07T07:48:13;8.38;;;7.55;;
8297;SDS011;4187;42.778;23.242;2023-05-07T07:50:42;7.78;;;7.07;;
8297;SDS011;4187;42.778;23.242;2023-05-07T07:53:11;8.45;;;7.15;;
8297;SDS011;4187;42.778;23.242;2023-05-07T07:55:41;7.45;;;6.70;;
8297;SDS011;4187;42.778;23.242;2023-05-07T07:58:12;11.40;;;6.90;;
8297;SDS011;4187;42.778;23.242;2023-05-07T08:00:44;7.95;;;6.70;;
8297;SDS011;4187;42.778;23.242;2023-05-07T08:03:13;7.72;;;6.53;;
8297;SDS011;4187;42.778;23.242;2023-05-07T08:05:43;8.32;;;6.38;;
8297;SDS011;4187;42.778;23.242;2023-05-07T08:08:17;7.95;;;6.15;;
8297;SDS011;4187;42.778;23.242;2023-05-07T08:10:48;7.15;;;6.43;;
8297;SDS011;4187;42.778;23.242;2023-05-07T08:13:19;7.10;;;6.40;;
8297;SDS011;4187;42.778;23.242;2023-05-07T08:15:52;6.38;;;5.78;;
8297;SDS011;4187;42.778;23.242;2023-05-07T08:18:26;6.97;;;6.22;;
8297;SDS011;4187;42.778;23.242;2023-05-07T08:20:58;7.65;;;6.22;;
8297;SDS011;4187;42.778;23.242;2023-05-07T09:19:51;5.65;;;5.10;;
8297;SDS011;4187;42.778;23.242;2023-05-07T09:22:19;6.05;;;4.32;;
8297;SDS011;4187;42.778;23.242;2023-05-07T09:24:47;4.53;;;4.10;;
8297;SDS011;4187;42.778;23.242;2023-05-07T09:27:14;5.72;;;4.35;;
8297;SDS011;4187;42.778;23.242;2023-05-07T09:29:41;4.88;;;4.18;;
8297;SDS011;4187;42.778;23.242;2023-05-07T09:32:09;4.90;;;3.92;;
8297;SDS011;4187;42.778;23.242;2023-05-07T09:34:37;4.78;;;4.28;;
8297;SDS011;4187;42.778;23.242;2023-05-07T09:37:04;7.72;;;4.70;;
8297;SDS011;4187;42.778;23.242;2023-05-07T09:39:38;7.30;;;4.40;;
8297;SDS011;4187;42.778;23.242;2023-05-07T09:42:05;5.60;;;3.95;;
8297;SDS011;4187;42.778;23.242;2023-05-07T09:44:32;3.75;;;3.45;;
8297;SDS011;4187;42.778;23.242;2023-05-07T09:47:00;5.07;;;3.55;;
8297;SDS011;4187;42.778;23.242;2023-05-07T09:49:30;4.93;;;4.20;;
8297;SDS011;4187;42.778;23.242;2023-05-07T09:52:02;5.18;;;3.90;;
8297;SDS011;4187;42.778;23.242;2023-05-07T09:54:31;4.15;;;3.75;;
8297;SDS011;4187;42.778;23.242;2023-05-07T09:56:59;4.85;;;3.88;;
8297;SDS011;4187;42.778;23.242;2023-05-07T09:59:28;10.52;;;5.40;;
8297;SDS011;4187;42.778;23.242;2023-05-07T10:01:57;5.10;;;4.60;;
8297;SDS011;4187;42.778;23.242;2023-05-07T10:04:25;8.27;;;3.90;;
8297;SDS011;4187;42.778;23.242;2023-05-07T10:06:52;4.22;;;3.80;;
8297;SDS011;4187;42.778;23.242;2023-05-07T10:09:22;4.50;;;3.85;;
8297;SDS011;4187;42.778;23.242;2023-05-07T10:11:49;5.65;;;3.33;;
8297;SDS011;4187;42.778;23.242;2023-05-07T10:14:16;5.13;;;3.65;;
8297;SDS011;4187;42.778;23.242;2023-05-07T10:16:43;3.70;;;3.38;;
8297;SDS011;4187;42.778;23.242;2023-05-07T10:19:11;4.07;;;3.30;;
8297;SDS011;4187;42.778;23.242;2023-05-07T10:21:39;3.95;;;3.35;;
8297;SDS011;4187;42.778;23.242;2023-05-07T10:24:12;4.13;;;3.58;;
8297;SDS011;4187;42.778;23.242;2023-05-07T10:26:47;5.30;;;3.00;;
8297;SDS011;4187;42.778;23.242;2023-05-07T10:29:24;3.80;;;3.10;;
8297;SDS011;4187;42.778;23.242;2023-05-07T10:31:58;3.35;;;3.05;;
8297;SDS011;4187;42.778;23.242;2023-05-07T10:34:30;3.15;;;2.85;;
8297;SDS011;4187;42.778;23.242;2023-05-07T10:37:01;4.88;;;3.38;;
8297;SDS011;4187;42.778;23.242;2023-05-07T10:39:29;3.40;;;3.00;;
8297;SDS011;4187;42.778;23.242;2023-05-07T10:41:58;4.88;;;3.40;;
8297;SDS011;4187;42.778;23.242;2023-05-07T10:44:34;5.05;;;3.15;;
8297;SDS011;4187;42.778;23.242;2023-05-07T10:47:08;5.03;;;3.10;;
8297;SDS011;4187;42.778;23.242;2023-05-07T10:49:36;2.80;;;2.60;;
8297;SDS011;4187;42.778;23.242;2023-05-07T10:52:16;3.10;;;2.90;;
8297;SDS011;4187;42.778;23.242;2023-05-07T10:54:44;3.90;;;2.85;;
8297;SDS011;4187;42.778;23.242;2023-05-07T11:00:40;3.58;;;3.10;;
8297;SDS011;4187;42.778;23.242;2023-05-07T11:03:07;3.72;;;3.05;;
8297;SDS011;4187;42.778;23.242;2023-05-07T11:05:34;3.20;;;2.83;;
8297;SDS011;4187;42.778;23.242;2023-05-07T11:08:02;5.45;;;3.10;;
8297;SDS011;4187;42.778;23.242;2023-05-07T11:10:47;4.55;;;2.95;;
8297;SDS011;4187;42.778;23.242;2023-05-07T11:13:16;3.10;;;2.70;;
8297;SDS011;4187;42.778;23.242;2023-05-07T11:15:43;4.15;;;3.40;;
8297;SDS011;4187;42.778;23.242;2023-05-07T11:18:12;3.42;;;2.92;;
8297;SDS011;4187;42.778;23.242;2023-05-07T11:20:47;4.13;;;2.53;;
8297;SDS011;4187;42.778;23.242;2023-05-07T11:26:27;2.60;;;2.40;;
8297;SDS011;4187;42.778;23.242;2023-05-07T11:28:56;3.45;;;2.22;;
8297;SDS011;4187;42.778;23.242;2023-05-07T11:31:26;7.25;;;2.50;;
8297;SDS011;4187;42.778;23.242;2023-05-07T11:33:55;2.60;;;2.20;;
8297;SDS011;4187;42.778;23.242;2023-05-07T11:36:22;2.78;;;2.28;;
8297;SDS011;4187;42.778;23.242;2023-05-07T11:38:51;3.60;;;2.50;;
8297;SDS011;4187;42.778;23.242;2023-05-07T11:41:18;2.53;;;2.17;;
8297;SDS011;4187;42.778;23.242;2023-05-07T11:43:59;2.50;;;2.30;;
8297;SDS011;4187;42.778;23.242;2023-05-07T11:46:27;2.50;;;2.30;;
8297;SDS011;4187;42.778;23.242;2023-05-07T11:48:54;2.40;;;2.20;;
8297;SDS011;4187;42.778;23.242;2023-05-07T11:51:22;2.55;;;2.30;;
8297;SDS011;4187;42.778;23.242;2023-05-07T11:53:51;3.25;;;2.30;;
8297;SDS011;4187;42.778;23.242;2023-05-07T11:56:18;3.15;;;2.33;;
8297;SDS011;4187;42.778;23.242;2023-05-07T11:58:46;2.22;;;2.00;;
8297;SDS011;4187;42.778;23.242;2023-05-07T12:01:15;3.70;;;2.42;;
8297;SDS011;4187;42.778;23.242;2023-05-07T12:03:44;2.75;;;2.55;;
8297;SDS011;4187;42.778;23.242;2023-05-07T12:06:12;2.45;;;2.25;;
8297;SDS011;4187;42.778;23.242;2023-05-07T12:08:39;2.53;;;2.33;;
8297;SDS011;4187;42.778;23.242;2023-05-07T12:11:08;3.55;;;2.30;;
8297;SDS011;4187;42.778;23.242;2023-05-07T12:13:36;2.50;;;2.30;;
8297;SDS011;4187;42.778;23.242;2023-05-07T12:16:03;3.55;;;2.53;;
8297;SDS011;4187;42.778;23.242;2023-05-07T12:18:34;4.10;;;3.20;;
8297;SDS011;4187;42.778;23.242;2023-05-07T12:21:02;3.17;;;2.88;;
8297;SDS011;4187;42.778;23.242;2023-05-07T12:23:31;3.47;;;2.45;;
8297;SDS011;4187;42.778;23.242;2023-05-07T12:25:58;2.83;;;2.63;;
8297;SDS011;4187;42.778;23.242;2023-05-07T12:28:25;4.03;;;2.20;;
8297;SDS011;4187;42.778;23.242;2023-05-07T12:30:52;3.55;;;2.63;;
8297;SDS011;4187;42.778;23.242;2023-05-07T12:33:23;4.28;;;3.00;;
8297;SDS011;4187;42.778;23.242;2023-05-07T12:35:53;5.38;;;2.75;;
8297;SDS011;4187;42.778;23.242;2023-05-07T12:38:21;2.65;;;2.45;;
8297;SDS011;4187;42.778;23.242;2023-05-07T12:40:48;4.13;;;2.60;;
8297;SDS011;4187;42.778;23.242;2023-05-07T12:43:17;3.55;;;2.42;;
8297;SDS011;4187;42.778;23.242;2023-05-07T12:45:44;4.22;;;2.40;;
8297;SDS011;4187;42.778;23.242;2023-05-07T12:48:13;2.50;;;2.30;;
8297;SDS011;4187;42.778;23.242;2023-05-07T12:50:40;2.75;;;2.47;;
8297;SDS011;4187;42.778;23.242;2023-05-07T12:53:10;2.97;;;2.63;;
8297;SDS011;4187;42.778;23.242;2023-05-07T12:55:41;2.85;;;2.55;;
8297;SDS011;4187;42.778;23.242;2023-05-07T12:58:13;4.43;;;2.47;;
8297;SDS011;4187;42.778;23.242;2023-05-07T13:00:42;8.25;;;4.45;;
8297;SDS011;4187;42.778;23.242;2023-05-07T13:03:09;5.30;;;2.67;;
8297;SDS011;4187;42.778;23.242;2023-05-07T13:05:37;3.08;;;2.50;;
8297;SDS011;4187;42.778;23.242;2023-05-07T13:08:04;5.95;;;2.83;;
8297;SDS011;4187;42.778;23.242;2023-05-07T13:10:32;9.68;;;3.42;;
8297;SDS011;4187;42.778;23.242;2023-05-07T13:12:59;5.13;;;2.60;;
8297;SDS011;4187;42.778;23.242;2023-05-07T13:15:26;3.15;;;2.47;;
8297;SDS011;4187;42.778;23.242;2023-05-07T13:17:53;7.00;;;3.47;;
8297;SDS011;4187;42.778;23.242;2023-05-07T13:20:21;3.92;;;2.38;;
8297;SDS011;4187;42.778;23.242;2023-05-07T13:22:47;3.65;;;2.40;;
8297;SDS011;4187;42.778;23.242;2023-05-07T13:25:15;5.13;;;2.30;;
8297;SDS011;4187;42.778;23.242;2023-05-07T13:27:43;6.90;;;2.63;;
8297;SDS011;4187;42.778;23.242;2023-05-07T13:30:10;3.78;;;2.88;;
8297;SDS011;4187;42.778;23.242;2023-05-07T13:32:37;2.70;;;2.50;;
8297;SDS011;4187;42.778;23.242;2023-05-07T13:35:04;2.83;;;2.53;;
8297;SDS011;4187;42.778;23.242;2023-05-07T13:37:31;3.47;;;2.80;;
8297;SDS011;4187;42.778;23.242;2023-05-07T13:39:58;3.53;;;2.65;;
8297;SDS011;4187;42.778;23.242;2023-05-07T13:42:25;3.80;;;3.20;;
8297;SDS011;4187;42.778;23.242;2023-05-07T13:44:53;3.42;;;2.50;;
8297;SDS011;4187;42.778;23.242;2023-05-07T13:47:19;6.03;;;3.00;;
8297;SDS011;4187;42.778;23.242;2023-05-07T13:49:46;2.40;;;2.20;;
8297;SDS011;4187;42.778;23.242;2023-05-07T13:52:14;3.70;;;2.63;;
8297;SDS011;4187;42.778;23.242;2023-05-07T13:54:41;4.05;;;2.22;;
8297;SDS011;4187;42.778;23.242;2023-05-07T13:57:08;2.80;;;2.40;;
8297;SDS011;4187;42.778;23.242;2023-05-07T13:59:35;2.85;;;2.55;;
8297;SDS011;4187;42.778;23.242;2023-05-07T14:02:03;5.30;;;2.67;;
8297;SDS011;4187;42.778;23.242;2023-05-07T14:04:30;3.58;;;2.42;;
8297;SDS011;4187;42.778;23.242;2023-05-07T14:06:57;2.63;;;2.38;;
8297;SDS011;4187;42.778;23.242;2023-05-07T14:09:24;4.00;;;2.30;;
8297;SDS011;4187;42.778;23.242;2023-05-07T14:11:51;2.60;;;2.40;;
8297;SDS011;4187;42.778;23.242;2023-05-07T14:14:18;2.67;;;2.47;;
8297;SDS011;4187;42.778;23.242;2023-05-07T14:16:45;4.40;;;2.50;;
8297;SDS011;4187;42.778;23.242;2023-05-07T14:19:13;2.88;;;2.58;;
8297;SDS011;4187;42.778;23.242;2023-05-07T14:21:40;4.55;;;2.53;;
8297;SDS011;4187;42.778;23.242;2023-05-07T14:24:07;4.47;;;2.53;;
8297;SDS011;4187;42.778;23.242;2023-05-07T14:26:34;3.38;;;2.60;;
8297;SDS011;4187;42.778;23.242;2023-05-07T14:29:01;3.40;;;2.47;;
8297;SDS011;4187;42.778;23.242;2023-05-07T14:31:28;4.35;;;2.50;;
8297;SDS011;4187;42.778;23.242;2023-05-07T14:33:55;2.58;;;2.38;;
8297;SDS011;4187;42.778;23.242;2023-05-07T14:36:25;4.00;;;2.78;;
8297;SDS011;4187;42.778;23.242;2023-05-07T14:38:52;5.53;;;2.60;;
8297;SDS011;4187;42.778;23.242;2023-05-07T14:41:19;3.85;;;2.42;;
8297;SDS011;4187;42.778;23.242;2023-05-07T14:43:47;8.02;;;2.92;;
8297;SDS011;4187;42.778;23.242;2023-05-07T14:46:15;2.50;;;2.30;;
8297;SDS011;4187;42.778;23.242;2023-05-07T14:48:43;3.17;;;2.50;;
8297;SDS011;4187;42.778;23.242;2023-05-07T14:51:10;4.28;;;2.28;;
8297;SDS011;4187;42.778;23.242;2023-05-07T14:53:38;6.18;;;2.45;;
8297;SDS011;4187;42.778;23.242;2023-05-07T14:56:05;6.38;;;3.00;;
8297;SDS011;4187;42.778;23.242;2023-05-07T14:58:32;2.70;;;2.40;;
8297;SDS011;4187;42.778;23.242;2023-05-07T15:00:59;3.97;;;2.70;;
8297;SDS011;4187;42.778;23.242;2023-05-07T15:03:26;3.03;;;2.67;;
8297;SDS011;4187;42.778;23.242;2023-05-07T15:05:53;3.33;;;2.70;;
8297;SDS011;4187;42.778;23.242;2023-05-07T15:08:20;7.20;;;3.15;;
8297;SDS011;4187;42.778;23.242;2023-05-07T15:10:49;4.70;;;2.40;;
8297;SDS011;4187;42.778;23.242;2023-05-07T15:13:15;5.40;;;2.70;;
8297;SDS011;4187;42.778;23.242;2023-05-07T15:15:42;3.10;;;2.80;;
8297;SDS011;4187;42.778;23.242;2023-05-07T15:18:10;3.08;;;2.88;;
8297;SDS011;4187;42.778;23.242;2023-05-07T15:20:37;3.50;;;2.80;;
8297;SDS011;4187;42.778;23.242;2023-05-07T15:23:04;3.88;;;2.83;;
8297;SDS011;4187;42.778;23.242;2023-05-07T15:25:34;2.80;;;2.55;;
8297;SDS011;4187;42.778;23.242;2023-05-07T15:28:03;4.00;;;2.67;;
8297;SDS011;4187;42.778;23.242;2023-05-07T15:30:29;6.63;;;2.80;;
8297;SDS011;4187;42.778;23.242;2023-05-07T15:32:56;3.05;;;2.70;;
8297;SDS011;4187;42.778;23.242;2023-05-07T15:35:23;4.15;;;3.20;;
8297;SDS011;4187;42.778;23.242;2023-05-07T15:37:50;2.75;;;2.45;;
8297;SDS011;4187;42.778;23.242;2023-05-07T15:40:17;4.13;;;2.42;;
8297;SDS011;4187;42.778;23.242;2023-05-07T15:42:44;3.97;;;2.50;;
8297;SDS011;4187;42.778;23.242;2023-05-07T15:45:13;7.72;;;3.10;;
8297;SDS011;4187;42.778;23.242;2023-05-07T15:47:40;5.20;;;2.92;;
8297;SDS011;4187;42.778;23.242;2023-05-07T15:50:07;7.45;;;3.20;;
8297;SDS011;4187;42.778;23.242;2023-05-07T15:52:34;19.20;;;3.80;;
8297;SDS011;4187;42.778;23.242;2023-05-07T15:55:01;11.10;;;3.22;;
8297;SDS011;4187;42.778;23.242;2023-05-07T15:57:28;3.63;;;2.83;;
8297;SDS011;4187;42.778;23.242;2023-05-07T15:59:56;6.85;;;2.90;;
8297;SDS011;4187;42.778;23.242;2023-05-07T16:02:24;3.55;;;2.60;;
8297;SDS011;4187;42.778;23.242;2023-05-07T16:04:51;4.25;;;3.83;;
8297;SDS011;4187;42.778;23.242;2023-05-07T16:07:18;4.03;;;3.15;;
8297;SDS011;4187;42.778;23.242;2023-05-07T16:09:45;3.42;;;3.13;;
8297;SDS011;4187;42.778;23.242;2023-05-07T16:12:11;5.60;;;3.15;;
8297;SDS011;4187;42.778;23.242;2023-05-07T16:14:38;3.15;;;2.53;;
8297;SDS011;4187;42.778;23.242;2023-05-07T16:17:05;2.80;;;2.60;;
8297;SDS011;4187;42.778;23.242;2023-05-07T16:19:33;3.45;;;2.78;;
8297;SDS011;4187;42.778;23.242;2023-05-07T16:22:00;4.75;;;2.97;;
8297;SDS011;4187;42.778;23.242;2023-05-07T16:24:28;6.22;;;2.88;;
8297;SDS011;4187;42.778;23.242;2023-05-07T16:26:54;3.38;;;2.92;;
8297;SDS011;4187;42.778;23.242;2023-05-07T16:29:21;3.42;;;3.08;;